sensor_id;sensor_type;location;lat;lon;timestamp;temperature;humidity
70762;DHT22;58360;0.000;0.000;2023-02-20T00:01:22;7.60;88.10
70762;DHT22;58360;0.000;0.000;2023-02-20T00:03:48;7.80;87.10
70762;DHT22;58360;0.000;0.000;2023-02-20T00:06:14;7.90;86.60
70762;DHT22;58360;0.000;0.000;2023-02-20T00:08:39;7.80;86.70
70762;DHT22;58360;0.000;0.000;2023-02-20T00:11:06;7.80;87.10
70762;DHT22;58360;0.000;0.000;2023-02-20T00:13:32;7.80;87.30
70762;DHT22;58360;0.000;0.000;2023-02-20T00:15:58;7.90;87.30
70762;DHT22;58360;0.000;0.000;2023-02-20T00:18:24;7.90;87.10
70762;DHT22;58360;0.000;0.000;2023-02-20T00:20:49;7.80;87.60
70762;DHT22;58360;0.000;0.000;2023-02-20T00:23:15;7.70;87.90
70762;DHT22;58360;0.000;0.000;2023-02-20T00:25:41;7.70;88.20
70762;DHT22;58360;0.000;0.000;2023-02-20T00:28:07;7.70;88.20
70762;DHT22;58360;0.000;0.000;2023-02-20T00:30:32;7.70;88.50
70762;DHT22;58360;0.000;0.000;2023-02-20T00:32:58;7.60;88.80
70762;DHT22;58360;0.000;0.000;2023-02-20T00:35:25;7.60;89.20
70762;DHT22;58360;0.000;0.000;2023-02-20T00:37:52;7.60;88.90
70762;DHT22;58360;0.000;0.000;2023-02-20T00:40:20;7.40;89.20
70762;DHT22;58360;0.000;0.000;2023-02-20T00:42:46;7.50;89.60
70762;DHT22;58360;0.000;0.000;2023-02-20T00:45:13;7.50;89.40
70762;DHT22;58360;0.000;0.000;2023-02-20T00:47:39;7.60;89.10
70762;DHT22;58360;0.000;0.000;2023-02-20T00:50:05;7.50;89.40
70762;DHT22;58360;0.000;0.000;2023-02-20T00:52:31;7.50;89.40
70762;DHT22;58360;0.000;0.000;2023-02-20T00:54:57;7.60;89.20
70762;DHT22;58360;0.000;0.000;2023-02-20T00:57:23;7.50;89.90
70762;DHT22;58360;0.000;0.000;2023-02-20T00:59:48;7.60;89.50
70762;DHT22;58360;0.000;0.000;2023-02-20T01:02:14;7.60;89.70
70762;DHT22;58360;0.000;0.000;2023-02-20T01:04:41;7.60;89.50
70762;DHT22;58360;0.000;0.000;2023-02-20T01:07:07;7.50;90.00
70762;DHT22;58360;0.000;0.000;2023-02-20T01:09:32;7.50;90.00
70762;DHT22;58360;0.000;0.000;2023-02-20T01:11:58;7.60;90.10
70762;DHT22;58360;0.000;0.000;2023-02-20T01:14:23;7.50;90.20
70762;DHT22;58360;0.000;0.000;2023-02-20T01:16:51;7.50;90.30
70762;DHT22;58360;0.000;0.000;2023-02-20T01:19:21;7.50;90.40
70762;DHT22;58360;0.000;0.000;2023-02-20T01:21:47;7.50;90.50
70762;DHT22;58360;0.000;0.000;2023-02-20T01:24:14;7.50;90.50
70762;DHT22;58360;0.000;0.000;2023-02-20T01:26:44;7.50;90.60
70762;DHT22;58360;0.000;0.000;2023-02-20T01:29:11;7.60;90.60
70762;DHT22;58360;0.000;0.000;2023-02-20T01:31:36;7.70;90.50
70762;DHT22;58360;0.000;0.000;2023-02-20T01:34:03;7.80;90.40
70762;DHT22;58360;0.000;0.000;2023-02-20T01:36:29;7.80;90.30
70762;DHT22;58360;0.000;0.000;2023-02-20T01:38:55;7.80;90.30
70762;DHT22;58360;0.000;0.000;2023-02-20T01:41:22;7.90;90.20
70762;DHT22;58360;0.000;0.000;2023-02-20T01:43:48;7.80;90.30
70762;DHT22;58360;0.000;0.000;2023-02-20T01:49:04;7.70;90.50
70762;DHT22;58360;0.000;0.000;2023-02-20T01:51:35;7.80;90.50
70762;DHT22;58360;0.000;0.000;2023-02-20T01:54:03;7.80;90.60
70762;DHT22;58360;0.000;0.000;2023-02-20T01:56:31;7.70;90.70
70762;DHT22;58360;0.000;0.000;2023-02-20T01:58:57;7.70;90.70
70762;DHT22;58360;0.000;0.000;2023-02-20T02:01:23;7.60;90.90
70762;DHT22;58360;0.000;0.000;2023-02-20T02:04:03;7.60;90.90
70762;DHT22;58360;0.000;0.000;2023-02-20T02:06:31;7.70;90.90
70762;DHT22;58360;0.000;0.000;2023-02-20T02:09:05;7.70;90.90
70762;DHT22;58360;0.000;0.000;2023-02-20T02:11:33;7.70;90.90
70762;DHT22;58360;0.000;0.000;2023-02-20T02:14:01;7.70;90.90
70762;DHT22;58360;0.000;0.000;2023-02-20T02:22:12;7.70;91.00
70762;DHT22;58360;0.000;0.000;2023-02-20T02:39:07;8.00;90.40
70762;DHT22;58360;0.000;0.000;2023-02-20T02:42:12;7.90;90.70
70762;DHT22;58360;0.000;0.000;2023-02-20T02:45:04;7.90;90.50
70762;DHT22;58360;0.000;0.000;2023-02-20T02:50:35;8.00;90.50
70762;DHT22;58360;0.000;0.000;2023-02-20T02:53:04;8.00;90.40
70762;DHT22;58360;0.000;0.000;2023-02-20T02:55:31;8.10;90.30
70762;DHT22;58360;0.000;0.000;2023-02-20T02:58:00;8.10;90.20
70762;DHT22;58360;0.000;0.000;2023-02-20T03:00:40;8.20;90.00
70762;DHT22;58360;0.000;0.000;2023-02-20T03:03:31;8.10;90.00
70762;DHT22;58360;0.000;0.000;2023-02-20T03:06:12;8.00;90.30
70762;DHT22;58360;0.000;0.000;2023-02-20T03:08:50;8.00;90.40
70762;DHT22;58360;0.000;0.000;2023-02-20T03:11:22;8.00;90.50
70762;DHT22;58360;0.000;0.000;2023-02-20T03:13:55;8.00;90.30
70762;DHT22;58360;0.000;0.000;2023-02-20T03:19:35;8.00;90.40
70762;DHT22;58360;0.000;0.000;2023-02-20T03:22:06;8.00;90.40
70762;DHT22;58360;0.000;0.000;2023-02-20T03:24:36;7.90;90.50
70762;DHT22;58360;0.000;0.000;2023-02-20T03:27:23;7.80;90.60
70762;DHT22;58360;0.000;0.000;2023-02-20T03:29:54;7.80;90.80
70762;DHT22;58360;0.000;0.000;2023-02-20T03:32:24;8.00;90.60
70762;DHT22;58360;0.000;0.000;2023-02-20T03:35:10;7.90;90.50
70762;DHT22;58360;0.000;0.000;2023-02-20T03:37:55;7.90;90.70
70762;DHT22;58360;0.000;0.000;2023-02-20T03:40:41;7.90;90.60
70762;DHT22;58360;0.000;0.000;2023-02-20T03:43:26;7.90;90.60
70762;DHT22;58360;0.000;0.000;2023-02-20T03:46:06;7.90;90.70
70762;DHT22;58360;0.000;0.000;2023-02-20T03:49:05;8.00;90.60
70762;DHT22;58360;0.000;0.000;2023-02-20T03:51:36;8.20;90.30
70762;DHT22;58360;0.000;0.000;2023-02-20T03:54:02;8.20;90.40
70762;DHT22;58360;0.000;0.000;2023-02-20T03:56:36;8.10;90.50
70762;DHT22;58360;0.000;0.000;2023-02-20T03:59:30;8.10;90.40
70762;DHT22;58360;0.000;0.000;2023-02-20T04:02:02;8.10;90.40
70762;DHT22;58360;0.000;0.000;2023-02-20T04:04:49;8.10;90.40
70762;DHT22;58360;0.000;0.000;2023-02-20T04:07:35;8.20;90.40
70762;DHT22;58360;0.000;0.000;2023-02-20T04:10:05;8.20;90.80
70762;DHT22;58360;0.000;0.000;2023-02-20T04:12:36;8.20;90.50
70762;DHT22;58360;0.000;0.000;2023-02-20T04:15:04;8.30;90.40
70762;DHT22;58360;0.000;0.000;2023-02-20T04:17:35;8.30;90.40
70762;DHT22;58360;0.000;0.000;2023-02-20T04:20:02;8.30;90.40
70762;DHT22;58360;0.000;0.000;2023-02-20T04:22:30;8.20;90.50
70762;DHT22;58360;0.000;0.000;2023-02-20T04:25:04;8.30;90.80
70762;DHT22;58360;0.000;0.000;2023-02-20T04:27:32;8.30;90.40
70762;DHT22;58360;0.000;0.000;2023-02-20T04:29:58;8.30;90.40
70762;DHT22;58360;0.000;0.000;2023-02-20T04:32:23;8.30;90.30
70762;DHT22;58360;0.000;0.000;2023-02-20T04:34:49;8.20;90.50
70762;DHT22;58360;0.000;0.000;2023-02-20T04:37:17;8.30;90.40
70762;DHT22;58360;0.000;0.000;2023-02-20T04:39:46;8.40;90.40
70762;DHT22;58360;0.000;0.000;2023-02-20T04:42:12;8.50;90.10
70762;DHT22;58360;0.000;0.000;2023-02-20T04:44:37;8.50;90.10
70762;DHT22;58360;0.000;0.000;2023-02-20T04:47:06;8.40;90.20
70762;DHT22;58360;0.000;0.000;2023-02-20T04:49:33;8.50;90.20
70762;DHT22;58360;0.000;0.000;2023-02-20T04:51:59;8.50;90.00
70762;DHT22;58360;0.000;0.000;2023-02-20T04:54:25;8.60;89.80
70762;DHT22;58360;0.000;0.000;2023-02-20T04:56:51;8.60;90.00
70762;DHT22;58360;0.000;0.000;2023-02-20T04:59:18;8.60;89.50
70762;DHT22;58360;0.000;0.000;2023-02-20T05:01:45;8.60;89.60
70762;DHT22;58360;0.000;0.000;2023-02-20T05:04:18;8.60;89.70
70762;DHT22;58360;0.000;0.000;2023-02-20T05:06:48;8.60;89.70
70762;DHT22;58360;0.000;0.000;2023-02-20T05:09:14;8.70;89.20
70762;DHT22;58360;0.000;0.000;2023-02-20T05:11:42;8.70;88.70
70762;DHT22;58360;0.000;0.000;2023-02-20T05:14:08;8.70;89.40
70762;DHT22;58360;0.000;0.000;2023-02-20T05:16:36;8.80;88.70
70762;DHT22;58360;0.000;0.000;2023-02-20T05:19:02;8.80;88.20
70762;DHT22;58360;0.000;0.000;2023-02-20T05:21:28;8.60;88.50
70762;DHT22;58360;0.000;0.000;2023-02-20T05:24:13;8.70;88.40
70762;DHT22;58360;0.000;0.000;2023-02-20T05:26:38;8.70;88.50
70762;DHT22;58360;0.000;0.000;2023-02-20T05:29:06;8.80;88.30
70762;DHT22;58360;0.000;0.000;2023-02-20T05:31:34;8.70;88.30
70762;DHT22;58360;0.000;0.000;2023-02-20T05:34:01;8.70;87.90
70762;DHT22;58360;0.000;0.000;2023-02-20T05:36:27;8.70;88.20
70762;DHT22;58360;0.000;0.000;2023-02-20T05:38:53;8.70;87.60
70762;DHT22;58360;0.000;0.000;2023-02-20T05:41:19;8.70;87.50
70762;DHT22;58360;0.000;0.000;2023-02-20T05:43:45;8.70;88.10
70762;DHT22;58360;0.000;0.000;2023-02-20T05:46:11;8.60;87.50
70762;DHT22;58360;0.000;0.000;2023-02-20T05:48:37;8.60;87.50
70762;DHT22;58360;0.000;0.000;2023-02-20T05:51:02;8.40;87.60
70762;DHT22;58360;0.000;0.000;2023-02-20T05:53:29;8.40;87.90
70762;DHT22;58360;0.000;0.000;2023-02-20T05:55:56;8.40;87.80
70762;DHT22;58360;0.000;0.000;2023-02-20T05:58:22;8.50;87.40
70762;DHT22;58360;0.000;0.000;2023-02-20T06:00:48;8.40;87.80
70762;DHT22;58360;0.000;0.000;2023-02-20T06:03:14;8.50;87.90
70762;DHT22;58360;0.000;0.000;2023-02-20T06:05:40;8.50;87.90
70762;DHT22;58360;0.000;0.000;2023-02-20T06:08:06;8.60;87.60
70762;DHT22;58360;0.000;0.000;2023-02-20T06:10:32;8.70;87.30
70762;DHT22;58360;0.000;0.000;2023-02-20T06:12:58;8.70;86.70
70762;DHT22;58360;0.000;0.000;2023-02-20T06:15:23;8.60;87.00
70762;DHT22;58360;0.000;0.000;2023-02-20T06:17:49;8.60;87.00
70762;DHT22;58360;0.000;0.000;2023-02-20T06:20:15;8.70;86.80
70762;DHT22;58360;0.000;0.000;2023-02-20T06:22:41;8.60;87.50
70762;DHT22;58360;0.000;0.000;2023-02-20T06:25:07;8.60;87.20
70762;DHT22;58360;0.000;0.000;2023-02-20T06:27:33;8.60;86.80
70762;DHT22;58360;0.000;0.000;2023-02-20T06:29:59;8.60;86.50
70762;DHT22;58360;0.000;0.000;2023-02-20T06:32:24;8.60;86.60
70762;DHT22;58360;0.000;0.000;2023-02-20T06:34:50;8.60;86.70
70762;DHT22;58360;0.000;0.000;2023-02-20T06:37:16;8.60;86.60
70762;DHT22;58360;0.000;0.000;2023-02-20T06:39:42;8.70;86.40
70762;DHT22;58360;0.000;0.000;2023-02-20T06:42:10;8.70;86.20
70762;DHT22;58360;0.000;0.000;2023-02-20T06:44:36;8.60;86.90
70762;DHT22;58360;0.000;0.000;2023-02-20T06:47:02;8.70;86.60
70762;DHT22;58360;0.000;0.000;2023-02-20T06:49:36;8.70;86.70
70762;DHT22;58360;0.000;0.000;2023-02-20T06:52:03;8.60;87.00
70762;DHT22;58360;0.000;0.000;2023-02-20T06:54:29;8.60;87.20
70762;DHT22;58360;0.000;0.000;2023-02-20T06:56:55;8.60;87.00
70762;DHT22;58360;0.000;0.000;2023-02-20T06:59:22;8.60;86.90
70762;DHT22;58360;0.000;0.000;2023-02-20T07:01:48;8.70;86.80
70762;DHT22;58360;0.000;0.000;2023-02-20T07:04:21;8.80;86.80
70762;DHT22;58360;0.000;0.000;2023-02-20T07:06:47;8.90;85.90
70762;DHT22;58360;0.000;0.000;2023-02-20T07:09:14;8.70;86.60
70762;DHT22;58360;0.000;0.000;2023-02-20T07:11:40;8.80;86.60
70762;DHT22;58360;0.000;0.000;2023-02-20T07:14:07;8.90;85.70
70762;DHT22;58360;0.000;0.000;2023-02-20T07:16:32;8.90;85.60
70762;DHT22;58360;0.000;0.000;2023-02-20T07:18:58;8.90;86.00
70762;DHT22;58360;0.000;0.000;2023-02-20T07:21:24;8.90;85.70
70762;DHT22;58360;0.000;0.000;2023-02-20T07:23:50;8.90;85.80
70762;DHT22;58360;0.000;0.000;2023-02-20T07:26:20;8.80;86.30
70762;DHT22;58360;0.000;0.000;2023-02-20T07:28:46;8.80;86.40
70762;DHT22;58360;0.000;0.000;2023-02-20T07:31:12;8.90;86.10
70762;DHT22;58360;0.000;0.000;2023-02-20T07:33:38;8.90;85.90
70762;DHT22;58360;0.000;0.000;2023-02-20T07:36:04;9.00;85.60
70762;DHT22;58360;0.000;0.000;2023-02-20T07:38:30;9.00;85.40
70762;DHT22;58360;0.000;0.000;2023-02-20T07:40:55;9.10;85.00
70762;DHT22;58360;0.000;0.000;2023-02-20T07:43:21;9.20;85.00
70762;DHT22;58360;0.000;0.000;2023-02-20T07:45:47;9.10;85.00
70762;DHT22;58360;0.000;0.000;2023-02-20T07:48:13;9.20;84.90
70762;DHT22;58360;0.000;0.000;2023-02-20T07:50:38;9.20;84.70
70762;DHT22;58360;0.000;0.000;2023-02-20T07:53:04;9.10;85.30
70762;DHT22;58360;0.000;0.000;2023-02-20T07:55:30;9.10;85.40
70762;DHT22;58360;0.000;0.000;2023-02-20T07:57:55;9.10;85.10
70762;DHT22;58360;0.000;0.000;2023-02-20T08:00:24;9.20;85.00
70762;DHT22;58360;0.000;0.000;2023-02-20T08:02:50;9.10;85.30
70762;DHT22;58360;0.000;0.000;2023-02-20T08:05:16;9.20;85.00
70762;DHT22;58360;0.000;0.000;2023-02-20T08:07:46;9.10;85.20
70762;DHT22;58360;0.000;0.000;2023-02-20T08:10:13;9.20;84.90
70762;DHT22;58360;0.000;0.000;2023-02-20T08:12:39;9.20;85.30
70762;DHT22;58360;0.000;0.000;2023-02-20T08:15:05;9.30;85.10
70762;DHT22;58360;0.000;0.000;2023-02-20T08:17:31;9.40;84.40
70762;DHT22;58360;0.000;0.000;2023-02-20T08:19:56;9.40;84.50
70762;DHT22;58360;0.000;0.000;2023-02-20T08:22:22;9.40;84.70
70762;DHT22;58360;0.000;0.000;2023-02-20T08:24:48;9.50;84.20
70762;DHT22;58360;0.000;0.000;2023-02-20T08:27:13;9.40;84.10
70762;DHT22;58360;0.000;0.000;2023-02-20T08:29:39;9.40;84.40
70762;DHT22;58360;0.000;0.000;2023-02-20T08:32:05;9.40;84.50
70762;DHT22;58360;0.000;0.000;2023-02-20T08:34:30;9.50;84.60
70762;DHT22;58360;0.000;0.000;2023-02-20T08:36:56;9.50;84.50
70762;DHT22;58360;0.000;0.000;2023-02-20T08:39:21;9.50;84.60
70762;DHT22;58360;0.000;0.000;2023-02-20T08:41:47;9.50;84.10
70762;DHT22;58360;0.000;0.000;2023-02-20T08:44:13;9.60;84.40
70762;DHT22;58360;0.000;0.000;2023-02-20T08:46:49;9.50;84.60
70762;DHT22;58360;0.000;0.000;2023-02-20T08:49:16;9.50;84.50
70762;DHT22;58360;0.000;0.000;2023-02-20T08:51:47;9.40;84.60
70762;DHT22;58360;0.000;0.000;2023-02-20T08:54:13;9.50;84.70
70762;DHT22;58360;0.000;0.000;2023-02-20T08:56:40;9.50;84.70
70762;DHT22;58360;0.000;0.000;2023-02-20T08:59:06;9.50;84.60
70762;DHT22;58360;0.000;0.000;2023-02-20T09:01:32;9.50;84.60
70762;DHT22;58360;0.000;0.000;2023-02-20T09:03:58;9.50;84.40
70762;DHT22;58360;0.000;0.000;2023-02-20T09:06:24;9.60;84.60
70762;DHT22;58360;0.000;0.000;2023-02-20T09:08:51;9.60;84.40
70762;DHT22;58360;0.000;0.000;2023-02-20T09:11:17;9.60;84.50
70762;DHT22;58360;0.000;0.000;2023-02-20T09:13:44;9.70;84.20
70762;DHT22;58360;0.000;0.000;2023-02-20T09:16:12;9.70;84.40
70762;DHT22;58360;0.000;0.000;2023-02-20T09:18:37;9.80;83.80
70762;DHT22;58360;0.000;0.000;2023-02-20T09:21:03;9.80;84.00
70762;DHT22;58360;0.000;0.000;2023-02-20T09:23:32;9.80;84.20
70762;DHT22;58360;0.000;0.000;2023-02-20T09:25:58;9.70;84.50
70762;DHT22;58360;0.000;0.000;2023-02-20T09:28:23;9.80;84.20
70762;DHT22;58360;0.000;0.000;2023-02-20T09:30:49;9.90;83.90
70762;DHT22;58360;0.000;0.000;2023-02-20T09:33:19;9.80;84.10
70762;DHT22;58360;0.000;0.000;2023-02-20T09:35:44;9.90;84.00
70762;DHT22;58360;0.000;0.000;2023-02-20T09:38:10;9.80;84.50
70762;DHT22;58360;0.000;0.000;2023-02-20T09:40:36;9.80;84.70
70762;DHT22;58360;0.000;0.000;2023-02-20T09:46:17;10.00;84.20
70762;DHT22;58360;0.000;0.000;2023-02-20T09:48:57;9.90;84.60
70762;DHT22;58360;0.000;0.000;2023-02-20T09:51:27;9.80;84.80
70762;DHT22;58360;0.000;0.000;2023-02-20T09:56:24;9.80;85.20
70762;DHT22;58360;0.000;0.000;2023-02-20T09:59:12;10.00;85.00
70762;DHT22;58360;0.000;0.000;2023-02-20T10:01:50;10.10;84.40
70762;DHT22;58360;0.000;0.000;2023-02-20T10:04:20;10.00;84.60
70762;DHT22;58360;0.000;0.000;2023-02-20T10:06:50;10.00;84.90
70762;DHT22;58360;0.000;0.000;2023-02-20T10:09:17;10.00;84.70
70762;DHT22;58360;0.000;0.000;2023-02-20T10:14:28;10.10;84.60
70762;DHT22;58360;0.000;0.000;2023-02-20T10:17:17;10.10;84.50
70762;DHT22;58360;0.000;0.000;2023-02-20T10:28:03;10.10;84.90
70762;DHT22;58360;0.000;0.000;2023-02-20T10:31:12;10.10;84.70
70762;DHT22;58360;0.000;0.000;2023-02-20T10:33:48;10.20;84.90
70762;DHT22;58360;0.000;0.000;2023-02-20T10:36:36;10.20;84.80
70762;DHT22;58360;0.000;0.000;2023-02-20T10:39:14;10.30;84.70
70762;DHT22;58360;0.000;0.000;2023-02-20T10:41:51;10.30;84.60
70762;DHT22;58360;0.000;0.000;2023-02-20T10:44:31;10.30;84.50
70762;DHT22;58360;0.000;0.000;2023-02-20T10:47:19;10.30;84.60
70762;DHT22;58360;0.000;0.000;2023-02-20T10:49:56;10.30;84.80
70762;DHT22;58360;0.000;0.000;2023-02-20T10:52:30;10.40;84.60
70762;DHT22;58360;0.000;0.000;2023-02-20T10:55:13;10.50;83.80
70762;DHT22;58360;0.000;0.000;2023-02-20T10:58:03;10.50;83.70
70762;DHT22;58360;0.000;0.000;2023-02-20T11:00:37;10.50;83.90
70762;DHT22;58360;0.000;0.000;2023-02-20T11:03:11;10.50;84.20
70762;DHT22;58360;0.000;0.000;2023-02-20T11:05:45;10.40;84.30
70762;DHT22;58360;0.000;0.000;2023-02-20T11:08:11;10.40;84.30
70762;DHT22;58360;0.000;0.000;2023-02-20T11:10:37;10.40;84.20
70762;DHT22;58360;0.000;0.000;2023-02-20T11:13:04;10.30;84.50
70762;DHT22;58360;0.000;0.000;2023-02-20T11:15:33;10.30;84.90
70762;DHT22;58360;0.000;0.000;2023-02-20T11:18:04;10.40;84.60
70762;DHT22;58360;0.000;0.000;2023-02-20T11:20:39;10.50;84.40
70762;DHT22;58360;0.000;0.000;2023-02-20T11:23:08;10.40;85.30
70762;DHT22;58360;0.000;0.000;2023-02-20T11:25:37;10.40;84.50
70762;DHT22;58360;0.000;0.000;2023-02-20T11:28:23;10.50;84.40
70762;DHT22;58360;0.000;0.000;2023-02-20T11:31:02;10.50;84.70
70762;DHT22;58360;0.000;0.000;2023-02-20T11:33:30;10.50;85.00
70762;DHT22;58360;0.000;0.000;2023-02-20T11:36:17;10.50;84.50
70762;DHT22;58360;0.000;0.000;2023-02-20T11:38:45;10.50;84.40
70762;DHT22;58360;0.000;0.000;2023-02-20T11:41:25;10.50;84.60
70762;DHT22;58360;0.000;0.000;2023-02-20T11:46:35;10.50;84.30
70762;DHT22;58360;0.000;0.000;2023-02-20T11:49:23;10.60;84.30
70762;DHT22;58360;0.000;0.000;2023-02-20T11:51:48;10.60;84.60
70762;DHT22;58360;0.000;0.000;2023-02-20T11:54:24;10.50;84.90
70762;DHT22;58360;0.000;0.000;2023-02-20T11:59:37;10.70;84.00
70762;DHT22;58360;0.000;0.000;2023-02-20T12:02:24;10.70;84.10
70762;DHT22;58360;0.000;0.000;2023-02-20T12:10:34;10.70;83.70
70762;DHT22;58360;0.000;0.000;2023-02-20T12:13:03;10.70;84.00
70762;DHT22;58360;0.000;0.000;2023-02-20T12:15:29;10.70;83.80
70762;DHT22;58360;0.000;0.000;2023-02-20T12:20:46;10.60;84.00
70762;DHT22;58360;0.000;0.000;2023-02-20T12:26:49;10.70;83.90
70762;DHT22;58360;0.000;0.000;2023-02-20T12:29:41;10.70;83.70
70762;DHT22;58360;0.000;0.000;2023-02-20T12:32:37;10.70;83.70
70762;DHT22;58360;0.000;0.000;2023-02-20T12:46:33;10.90;82.90
70762;DHT22;58360;0.000;0.000;2023-02-20T12:51:52;11.00;83.20
70762;DHT22;58360;0.000;0.000;2023-02-20T13:03:01;11.20;81.80
70762;DHT22;58360;0.000;0.000;2023-02-20T13:05:28;11.10;81.90
70762;DHT22;58360;0.000;0.000;2023-02-20T13:07:57;11.10;82.10
70762;DHT22;58360;0.000;0.000;2023-02-20T13:10:47;11.10;82.20
70762;DHT22;58360;0.000;0.000;2023-02-20T13:13:15;11.00;82.30
70762;DHT22;58360;0.000;0.000;2023-02-20T13:15:49;11.00;82.60
70762;DHT22;58360;0.000;0.000;2023-02-20T13:18:38;10.90;82.90
70762;DHT22;58360;0.000;0.000;2023-02-20T13:21:12;10.90;82.90
70762;DHT22;58360;0.000;0.000;2023-02-20T13:23:39;11.00;82.90
70762;DHT22;58360;0.000;0.000;2023-02-20T13:29:19;11.00;83.20
70762;DHT22;58360;0.000;0.000;2023-02-20T13:36:46;11.00;83.00
70762;DHT22;58360;0.000;0.000;2023-02-20T13:46:59;11.10;83.10
70762;DHT22;58360;0.000;0.000;2023-02-20T13:57:24;11.20;82.20
70762;DHT22;58360;0.000;0.000;2023-02-20T13:59:54;11.30;82.40
70762;DHT22;58360;0.000;0.000;2023-02-20T14:02:23;11.30;82.10
70762;DHT22;58360;0.000;0.000;2023-02-20T14:05:00;11.40;82.30
70762;DHT22;58360;0.000;0.000;2023-02-20T14:12:40;11.40;81.70
70762;DHT22;58360;0.000;0.000;2023-02-20T14:15:07;11.50;81.50
70762;DHT22;58360;0.000;0.000;2023-02-20T14:17:33;11.40;81.60
70762;DHT22;58360;0.000;0.000;2023-02-20T14:20:04;11.40;81.90
70762;DHT22;58360;0.000;0.000;2023-02-20T14:22:34;11.40;81.80
70762;DHT22;58360;0.000;0.000;2023-02-20T14:25:18;11.30;82.20
70762;DHT22;58360;0.000;0.000;2023-02-20T14:27:45;11.30;82.60
70762;DHT22;58360;0.000;0.000;2023-02-20T14:30:18;11.30;82.50
70762;DHT22;58360;0.000;0.000;2023-02-20T14:32:50;11.40;82.50
70762;DHT22;58360;0.000;0.000;2023-02-20T14:40:42;11.40;82.30
70762;DHT22;58360;0.000;0.000;2023-02-20T14:43:22;11.40;82.30
70762;DHT22;58360;0.000;0.000;2023-02-20T14:46:03;11.40;81.70
70762;DHT22;58360;0.000;0.000;2023-02-20T14:48:32;11.50;81.80
70762;DHT22;58360;0.000;0.000;2023-02-20T14:53:42;11.40;82.10
70762;DHT22;58360;0.000;0.000;2023-02-20T14:56:09;11.40;82.10
70762;DHT22;58360;0.000;0.000;2023-02-20T14:58:35;11.40;82.00
70762;DHT22;58360;0.000;0.000;2023-02-20T15:01:29;11.40;82.00
70762;DHT22;58360;0.000;0.000;2023-02-20T15:04:12;11.40;82.30
70762;DHT22;58360;0.000;0.000;2023-02-20T15:06:42;11.50;82.00
70762;DHT22;58360;0.000;0.000;2023-02-20T15:09:08;11.50;81.70
70762;DHT22;58360;0.000;0.000;2023-02-20T15:11:35;11.50;81.90
70762;DHT22;58360;0.000;0.000;2023-02-20T15:14:17;11.40;82.00
70762;DHT22;58360;0.000;0.000;2023-02-20T15:16:44;11.60;81.30
70762;DHT22;58360;0.000;0.000;2023-02-20T15:19:21;11.50;81.40
70762;DHT22;58360;0.000;0.000;2023-02-20T15:21:57;11.50;81.50
70762;DHT22;58360;0.000;0.000;2023-02-20T15:24:34;11.50;81.70
70762;DHT22;58360;0.000;0.000;2023-02-20T15:27:15;11.50;81.90
70762;DHT22;58360;0.000;0.000;2023-02-20T15:29:43;11.60;81.60
70762;DHT22;58360;0.000;0.000;2023-02-20T15:32:23;11.60;81.40
70762;DHT22;58360;0.000;0.000;2023-02-20T15:34:54;11.60;81.40
70762;DHT22;58360;0.000;0.000;2023-02-20T15:37:31;11.50;81.50
70762;DHT22;58360;0.000;0.000;2023-02-20T15:40:11;11.50;81.90
70762;DHT22;58360;0.000;0.000;2023-02-20T15:42:40;11.50;81.50
70762;DHT22;58360;0.000;0.000;2023-02-20T15:45:06;11.50;82.20
70762;DHT22;58360;0.000;0.000;2023-02-20T15:47:32;11.50;82.20
70762;DHT22;58360;0.000;0.000;2023-02-20T15:49:58;11.40;82.50
70762;DHT22;58360;0.000;0.000;2023-02-20T15:52:24;11.30;82.80
70762;DHT22;58360;0.000;0.000;2023-02-20T15:54:53;11.20;83.00
70762;DHT22;58360;0.000;0.000;2023-02-20T15:57:20;11.30;83.20
70762;DHT22;58360;0.000;0.000;2023-02-20T15:59:46;11.30;83.10
70762;DHT22;58360;0.000;0.000;2023-02-20T16:02:14;11.30;83.00
70762;DHT22;58360;0.000;0.000;2023-02-20T16:04:44;11.20;83.50
70762;DHT22;58360;0.000;0.000;2023-02-20T16:07:10;11.30;83.30
70762;DHT22;58360;0.000;0.000;2023-02-20T16:09:36;11.30;83.40
70762;DHT22;58360;0.000;0.000;2023-02-20T16:12:02;11.30;83.00
70762;DHT22;58360;0.000;0.000;2023-02-20T16:14:28;11.30;83.20
70762;DHT22;58360;0.000;0.000;2023-02-20T16:16:53;11.30;83.30
70762;DHT22;58360;0.000;0.000;2023-02-20T16:19:21;11.20;83.80
70762;DHT22;58360;0.000;0.000;2023-02-20T16:21:47;11.30;83.90
70762;DHT22;58360;0.000;0.000;2023-02-20T16:24:14;11.30;83.30
70762;DHT22;58360;0.000;0.000;2023-02-20T16:26:42;11.30;83.20
70762;DHT22;58360;0.000;0.000;2023-02-20T16:29:18;11.30;83.40
70762;DHT22;58360;0.000;0.000;2023-02-20T16:34:25;11.20;83.50
70762;DHT22;58360;0.000;0.000;2023-02-20T16:36:52;11.30;83.80
70762;DHT22;58360;0.000;0.000;2023-02-20T16:39:18;11.20;83.70
70762;DHT22;58360;0.000;0.000;2023-02-20T16:41:44;11.20;83.60
70762;DHT22;58360;0.000;0.000;2023-02-20T16:44:24;11.30;83.40
70762;DHT22;58360;0.000;0.000;2023-02-20T16:46:51;11.30;83.40
70762;DHT22;58360;0.000;0.000;2023-02-20T16:49:17;11.20;83.80
70762;DHT22;58360;0.000;0.000;2023-02-20T16:51:43;11.20;83.90
70762;DHT22;58360;0.000;0.000;2023-02-20T16:54:23;11.20;84.00
70762;DHT22;58360;0.000;0.000;2023-02-20T16:56:49;11.20;84.90
70762;DHT22;58360;0.000;0.000;2023-02-20T16:59:15;11.10;84.50
70762;DHT22;58360;0.000;0.000;2023-02-20T17:01:40;11.20;84.00
70762;DHT22;58360;0.000;0.000;2023-02-20T17:04:06;11.20;84.00
70762;DHT22;58360;0.000;0.000;2023-02-20T17:06:34;11.20;84.00
70762;DHT22;58360;0.000;0.000;2023-02-20T17:08:59;11.00;84.50
70762;DHT22;58360;0.000;0.000;2023-02-20T17:11:26;11.00;85.00
70762;DHT22;58360;0.000;0.000;2023-02-20T17:13:52;11.00;84.80
70762;DHT22;58360;0.000;0.000;2023-02-20T17:16:18;11.00;84.70
70762;DHT22;58360;0.000;0.000;2023-02-20T17:18:44;11.00;84.90
70762;DHT22;58360;0.000;0.000;2023-02-20T17:21:10;10.90;85.20
70762;DHT22;58360;0.000;0.000;2023-02-20T17:23:35;10.90;85.30
70762;DHT22;58360;0.000;0.000;2023-02-20T17:26:01;11.00;84.80
70762;DHT22;58360;0.000;0.000;2023-02-20T17:28:27;11.00;84.90
70762;DHT22;58360;0.000;0.000;2023-02-20T17:30:53;11.00;84.90
70762;DHT22;58360;0.000;0.000;2023-02-20T17:33:20;11.00;84.70
70762;DHT22;58360;0.000;0.000;2023-02-20T17:35:46;11.00;84.70
70762;DHT22;58360;0.000;0.000;2023-02-20T17:38:12;11.00;85.10
70762;DHT22;58360;0.000;0.000;2023-02-20T17:40:38;10.90;85.20
70762;DHT22;58360;0.000;0.000;2023-02-20T17:43:04;10.80;85.90
70762;DHT22;58360;0.000;0.000;2023-02-20T17:45:30;10.80;85.80
70762;DHT22;58360;0.000;0.000;2023-02-20T17:47:55;10.80;85.80
70762;DHT22;58360;0.000;0.000;2023-02-20T17:50:21;10.90;85.50
70762;DHT22;58360;0.000;0.000;2023-02-20T17:52:47;10.90;85.40
70762;DHT22;58360;0.000;0.000;2023-02-20T17:55:22;11.00;85.30
70762;DHT22;58360;0.000;0.000;2023-02-20T17:57:49;11.00;85.10
70762;DHT22;58360;0.000;0.000;2023-02-20T18:00:16;11.00;85.00
70762;DHT22;58360;0.000;0.000;2023-02-20T18:02:42;11.00;84.90
70762;DHT22;58360;0.000;0.000;2023-02-20T18:05:08;10.90;85.10
70762;DHT22;58360;0.000;0.000;2023-02-20T18:07:33;10.90;85.50
70762;DHT22;58360;0.000;0.000;2023-02-20T18:09:59;10.70;86.00
70762;DHT22;58360;0.000;0.000;2023-02-20T18:12:28;10.70;86.30
70762;DHT22;58360;0.000;0.000;2023-02-20T18:14:53;10.70;86.60
70762;DHT22;58360;0.000;0.000;2023-02-20T18:17:20;10.70;86.60